Time;durP1;ratioP1;P1;durP2;ratioP2;P2;SDS_P1;SDS_P2;PMS_P1;PMS_P2;Temp;Humidity;BMP_temperature;BMP_pressure;BME280_temperature;BME280_humidity;BME280_pressure;Samples;Min_cycle;Max_cycle;Signal;HPM_P1;HPM_P2
2022/08/26 00:01:01;;;;;;;7.32;0.70;;;15.30;99.90;;;;;;4993775;28;20385;-77
2022/08/26 00:03:30;;;;;;;3.50;0.80;;;15.40;99.90;;;;;;4994021;28;20911;-77
2022/08/26 00:05:59;;;;;;;3.75;0.80;;;15.50;99.90;;;;;;4994167;28;20401;-78
2022/08/26 00:08:26;;;;;;;4.10;0.75;;;15.60;99.70;;;;;;4993941;28;20415;-77
2022/08/26 00:10:53;;;;;;;2.85;0.60;;;15.70;99.90;;;;;;4994025;28;20784;-76
2022/08/26 00:13:20;;;;;;;4.65;0.80;;;15.90;99.70;;;;;;4985342;28;20401;-77
2022/08/26 00:15:49;;;;;;;6.10;0.90;;;16.00;99.20;;;;;;4971530;28;20519;-76
2022/08/26 00:18:18;;;;;;;4.57;0.87;;;16.10;99.20;;;;;;4993684;28;20409;-77
2022/08/26 00:20:45;;;;;;;5.72;0.80;;;16.00;98.50;;;;;;4993549;28;20424;-76
2022/08/26 00:23:13;;;;;;;2.97;0.50;;;16.00;98.90;;;;;;4993726;28;20384;-77
2022/08/26 00:25:40;;;;;;;3.65;0.73;;;15.90;98.80;;;;;;4993634;28;20829;-76
2022/08/26 00:28:07;;;;;;;10.00;1.33;;;15.90;98.60;;;;;;4993408;28;20381;-76
2022/08/26 00:30:34;;;;;;;3.33;0.70;;;16.00;99.20;;;;;;4993402;28;20389;-76
2022/08/26 00:33:01;;;;;;;4.68;0.90;;;16.10;98.80;;;;;;4992456;28;20377;-77
2022/08/26 00:35:29;;;;;;;2.30;0.70;;;16.20;98.80;;;;;;4993423;28;20385;-77
2022/08/26 00:37:58;;;;;;;3.80;0.70;;;16.30;98.30;;;;;;4992961;28;20523;-77
2022/08/26 00:40:30;;;;;;;6.25;0.93;;;16.50;97.70;;;;;;4993346;28;20821;-77
2022/08/26 00:42:57;;;;;;;6.60;1.10;;;16.40;97.60;;;;;;4993188;28;20412;-77
2022/08/26 00:45:24;;;;;;;2.88;0.70;;;16.50;97.40;;;;;;4993210;28;20423;-77
2022/08/26 00:47:59;;;;;;;6.20;0.90;;;16.50;97.50;;;;;;4993168;28;20784;-78
2022/08/26 00:50:31;;;;;;;5.93;0.88;;;16.60;97.90;;;;;;4993281;28;20388;-77
2022/08/26 00:53:01;;;;;;;4.00;0.70;;;16.70;97.50;;;;;;4993292;28;20420;-77
2022/08/26 00:55:39;;;;;;;2.50;0.70;;;16.90;96.70;;;;;;4993029;28;20451;-77
2022/08/26 00:58:07;;;;;;;5.25;0.98;;;17.10;96.30;;;;;;4993163;28;20496;-77
2022/08/26 01:00:35;;;;;;;9.95;1.10;;;17.30;96.00;;;;;;4992875;28;20376;-76
2022/08/26 01:03:03;;;;;;;4.18;0.90;;;17.40;95.70;;;;;;4992742;28;20385;-77
2022/08/26 01:05:31;;;;;;;5.78;0.93;;;17.40;95.40;;;;;;4992631;28;20392;-77
2022/08/26 01:07:58;;;;;;;6.60;1.00;;;17.40;95.50;;;;;;4992826;28;20400;-77
2022/08/26 01:10:30;;;;;;;4.25;0.70;;;17.50;95.10;;;;;;4992842;28;20381;-76
2022/08/26 01:13:10;;;;;;;11.80;1.20;;;17.70;94.40;;;;;;4987461;28;20469;-78
2022/08/26 01:15:50;;;;;;;10.07;1.10;;;17.70;94.80;;;;;;4979086;28;20381;-78
2022/08/26 01:18:18;;;;;;;5.85;0.88;;;17.50;94.40;;;;;;4980558;28;20412;-78
2022/08/26 01:21:19;;;;;;;9.30;1.13;;;17.40;95.10;;;;;;4992297;28;20391;-78
2022/08/26 01:23:49;;;;;;;3.25;0.77;;;17.40;94.70;;;;;;4983386;28;20464;-78
2022/08/26 01:26:28;;;;;;;9.48;1.27;;;17.40;94.80;;;;;;4992227;28;20373;-78
2022/08/26 01:28:59;;;;;;;2.53;0.60;;;17.70;94.50;;;;;;4992537;28;20920;-78
2022/08/26 01:31:32;;;;;;;6.63;1.10;;;17.80;94.50;;;;;;4992330;28;20432;-78
2022/08/26 01:34:05;;;;;;;4.97;0.80;;;17.70;94.10;;;;;;4992384;28;20476;-77
2022/08/26 01:36:32;;;;;;;7.05;0.93;;;17.70;94.10;;;;;;4991635;28;20376;-78
2022/08/26 01:38:59;;;;;;;6.55;1.10;;;17.80;94.60;;;;;;4992286;28;20946;-77
2022/08/26 01:41:27;;;;;;;10.27;1.55;;;17.90;94.30;;;;;;4992057;28;20369;-77
2022/08/26 01:43:56;;;;;;;7.45;1.10;;;18.00;94.40;;;;;;4992026;28;20748;-77
2022/08/26 01:46:25;;;;;;;11.75;1.15;;;18.20;93.70;;;;;;4992074;28;20373;-78
2022/08/26 01:48:54;;;;;;;9.35;1.13;;;18.30;93.20;;;;;;4991999;28;20392;-78
2022/08/26 01:51:24;;;;;;;4.15;0.73;;;18.30;93.50;;;;;;4991937;28;20943;-77
2022/08/26 01:53:51;;;;;;;3.57;0.90;;;18.20;93.60;;;;;;4992086;28;20474;-77
2022/08/26 01:56:19;;;;;;;3.70;0.90;;;18.10;93.80;;;;;;4991686;28;20769;-77
2022/08/26 01:58:54;;;;;;;3.33;0.80;;;18.20;93.40;;;;;;4991626;28;20407;-77
2022/08/26 02:01:23;;;;;;;2.85;0.70;;;18.10;93.40;;;;;;4991521;28;20741;-77
2022/08/26 02:03:56;;;;;;;2.30;0.60;;;18.20;93.40;;;;;;4991581;28;20389;-77
2022/08/26 02:06:23;;;;;;;2.70;0.50;;;18.30;92.80;;;;;;4991476;28;20403;-77
2022/08/26 02:08:57;;;;;;;1.83;0.70;;;18.20;93.00;;;;;;4991623;28;20442;-77
2022/08/26 02:11:24;;;;;;;4.83;1.60;;;18.10;93.30;;;;;;4991483;28;21055;-77
2022/08/26 02:14:01;;;;;;;8.10;1.40;;;18.00;93.50;;;;;;4978790;28;20387;-77
2022/08/26 02:16:36;;;;;;;1.38;0.60;;;18.00;94.20;;;;;;4978334;28;20369;-78
2022/08/26 02:19:04;;;;;;;2.33;0.75;;;18.00;94.60;;;;;;4991560;28;20389;-77
2022/08/26 02:21:32;;;;;;;1.95;0.90;;;18.10;94.50;;;;;;4991212;28;20872;-77
2022/08/26 02:24:12;;;;;;;3.03;1.20;;;18.20;93.80;;;;;;4991373;28;20393;-77
2022/08/26 02:26:41;;;;;;;2.70;0.82;;;18.40;93.50;;;;;;4978060;28;20426;-77
2022/08/26 02:29:19;;;;;;;3.97;0.80;;;18.40;94.00;;;;;;4991155;28;20417;-77
2022/08/26 02:31:47;;;;;;;2.88;0.70;;;18.40;94.30;;;;;;4978488;28;20383;-78
2022/08/26 02:34:20;;;;;;;3.20;0.70;;;18.40;95.30;;;;;;4991655;28;20429;-77
2022/08/26 02:36:48;;;;;;;2.63;0.68;;;18.20;97.00;;;;;;4991132;28;20880;-77
2022/08/26 02:39:15;;;;;;;1.70;0.60;;;18.30;97.60;;;;;;4992932;28;20396;-77
2022/08/26 02:41:43;;;;;;;2.53;0.90;;;18.60;96.60;;;;;;4992483;28;20492;-76
2022/08/26 02:44:11;;;;;;;3.25;1.27;;;19.20;95.50;;;;;;4996341;28;20460;-77
2022/08/26 02:46:38;;;;;;;2.53;1.02;;;19.80;93.70;;;;;;4995146;28;20385;-77
2022/08/26 02:49:05;;;;;;;3.07;0.80;;;19.30;93.70;;;;;;4993793;28;20468;-77
2022/08/26 02:51:33;;;;;;;3.50;1.00;;;19.00;93.70;;;;;;4992473;28;20439;-77
2022/08/26 02:54:00;;;;;;;4.00;0.85;;;18.40;94.60;;;;;;4992779;28;20860;-78
2022/08/26 02:56:28;;;;;;;3.00;0.80;;;18.00;95.80;;;;;;4974604;28;20407;-78
2022/08/26 02:58:55;;;;;;;2.15;0.60;;;17.80;96.00;;;;;;4991811;28;20393;-78
2022/08/26 03:01:25;;;;;;;2.43;0.80;;;17.60;96.00;;;;;;4991712;28;20845;-77
2022/08/26 03:03:53;;;;;;;6.60;1.52;;;17.50;96.80;;;;;;4991788;28;20381;-78
2022/08/26 03:06:21;;;;;;;1.52;0.70;;;17.50;96.50;;;;;;4991697;28;20401;-77
2022/08/26 03:08:49;;;;;;;7.18;1.02;;;17.60;96.20;;;;;;4991282;28;20397;-78
2022/08/26 03:11:17;;;;;;;1.65;0.70;;;17.80;96.00;;;;;;4991138;28;20380;-77
2022/08/26 03:13:45;;;;;;;1.83;0.60;;;17.90;96.00;;;;;;4979458;28;20469;-77
2022/08/26 03:16:13;;;;;;;3.13;0.80;;;17.90;95.90;;;;;;4989562;28;20460;-78
2022/08/26 03:18:40;;;;;;;5.93;1.10;;;18.00;95.90;;;;;;4991202;28;20463;-78
2022/08/26 03:21:09;;;;;;;3.78;0.98;;;18.00;95.50;;;;;;4990891;28;20477;-78
2022/08/26 03:23:37;;;;;;;3.22;0.70;;;18.20;95.10;;;;;;4991530;28;20733;-77
2022/08/26 03:26:05;;;;;;;1.53;0.60;;;18.40;95.30;;;;;;4973677;28;20389;-77
2022/08/26 03:28:32;;;;;;;3.63;0.80;;;19.00;93.60;;;;;;4991100;28;20826;-78
2022/08/26 03:31:00;;;;;;;3.40;0.70;;;19.10;92.80;;;;;;4990833;28;20982;-78
2022/08/26 03:33:27;;;;;;;31.80;2.30;;;19.10;92.40;;;;;;4977988;28;20391;-77
2022/08/26 03:35:55;;;;;;;14.18;1.77;;;19.00;92.70;;;;;;4990929;28;20376;-78
2022/08/26 03:38:26;;;;;;;10.25;1.60;;;18.80;92.90;;;;;;4990805;28;20940;-77
2022/08/26 03:40:54;;;;;;;7.43;0.90;;;18.60;93.50;;;;;;4990772;28;20849;-77
2022/08/26 03:43:25;;;;;;;2.88;0.80;;;18.40;93.70;;;;;;4990683;28;20395;-77
2022/08/26 03:45:52;;;;;;;2.13;0.70;;;18.20;94.70;;;;;;4991296;28;20373;-78
2022/08/26 03:48:19;;;;;;;2.17;0.80;;;18.10;94.60;;;;;;4990937;28;20471;-78
2022/08/26 03:50:46;;;;;;;2.45;0.70;;;18.10;94.90;;;;;;4991411;28;20381;-77
2022/08/26 03:53:13;;;;;;;3.00;0.68;;;18.10;95.50;;;;;;4991416;28;20396;-77
2022/08/26 03:55:41;;;;;;;3.00;0.70;;;18.20;95.40;;;;;;4991225;28;20924;-77
2022/08/26 03:58:08;;;;;;;2.63;0.80;;;18.30;95.10;;;;;;4991147;28;20877;-77
2022/08/26 04:00:35;;;;;;;4.70;0.90;;;18.30;95.50;;;;;;4991288;28;20377;-77
2022/08/26 04:03:02;;;;;;;3.00;0.73;;;18.30;95.90;;;;;;5002458;28;20372;-77
2022/08/26 04:05:29;;;;;;;2.17;0.80;;;18.20;96.30;;;;;;5002258;28;20397;-77
2022/08/26 04:07:57;;;;;;;3.38;0.80;;;18.20;96.40;;;;;;5011998;28;20381;-77
2022/08/26 04:10:26;;;;;;;3.67;1.00;;;18.20;96.60;;;;;;5017322;28;20412;-78
2022/08/26 04:12:53;;;;;;;4.30;0.75;;;18.10;96.80;;;;;;5009908;28;20389;-77
2022/08/26 04:15:21;;;;;;;2.92;0.82;;;18.00;97.10;;;;;;5005212;28;20373;-76
2022/08/26 04:17:48;;;;;;;2.78;0.80;;;18.00;96.80;;;;;;5007208;28;20432;-78
2022/08/26 04:20:17;;;;;;;2.25;0.82;;;18.00;97.10;;;;;;4994455;28;20399;-78
2022/08/26 04:22:44;;;;;;;3.10;0.90;;;18.10;96.90;;;;;;4994457;28;20789;-77
2022/08/26 04:25:12;;;;;;;2.22;0.82;;;18.20;96.30;;;;;;4994414;28;20388;-78
2022/08/26 04:27:40;;;;;;;4.55;0.85;;;18.20;95.60;;;;;;4994334;28;20389;-78
2022/08/26 04:30:07;;;;;;;4.07;1.00;;;18.10;95.70;;;;;;4995026;28;20373;-78
2022/08/26 04:32:35;;;;;;;3.00;0.90;;;18.00;96.10;;;;;;4993998;28;20392;-78
2022/08/26 04:35:05;;;;;;;6.03;1.10;;;17.90;96.50;;;;;;4994499;28;20384;-79
2022/08/26 04:37:33;;;;;;;3.85;1.10;;;17.80;96.70;;;;;;4993583;28;20491;-79
2022/08/26 04:40:00;;;;;;;2.72;1.00;;;17.90;96.40;;;;;;4979868;28;20416;-78
2022/08/26 04:42:28;;;;;;;4.80;0.80;;;17.90;96.00;;;;;;4993743;28;20523;-78
2022/08/26 04:44:55;;;;;;;2.50;0.80;;;17.80;95.70;;;;;;4993571;28;20865;-78
2022/08/26 04:47:23;;;;;;;2.83;0.80;;;17.60;95.90;;;;;;4993381;28;20388;-78
2022/08/26 04:49:54;;;;;;;3.13;0.75;;;17.60;96.20;;;;;;4993377;28;20381;-79
2022/08/26 04:52:21;;;;;;;2.33;0.63;;;17.50;95.50;;;;;;4993382;28;20377;-78
2022/08/26 04:54:48;;;;;;;2.88;0.80;;;17.60;96.00;;;;;;4993281;28;20384;-80
2022/08/26 04:57:15;;;;;;;3.42;0.80;;;17.70;95.80;;;;;;4979968;28;20427;-79
2022/08/26 04:59:43;;;;;;;3.13;0.90;;;17.80;95.70;;;;;;4993175;28;20380;-77
2022/08/26 05:02:10;;;;;;;2.25;0.90;;;17.80;95.40;;;;;;4992984;28;20419;-79
2022/08/26 05:04:38;;;;;;;4.00;1.30;;;17.90;95.50;;;;;;4992893;28;20467;-79
2022/08/26 05:07:08;;;;;;;4.57;1.10;;;18.00;95.20;;;;;;4992919;28;20385;-78
2022/08/26 05:09:36;;;;;;;2.97;0.90;;;17.90;95.40;;;;;;4959475;28;20389;-78
2022/08/26 05:12:03;;;;;;;4.53;0.90;;;17.90;95.50;;;;;;4993323;28;20424;-78
2022/08/26 05:14:30;;;;;;;2.97;0.90;;;17.90;95.00;;;;;;4978525;28;20438;-79
2022/08/26 05:16:57;;;;;;;3.22;0.90;;;17.90;95.50;;;;;;4992963;28;20416;-83
2022/08/26 05:19:25;;;;;;;3.40;1.00;;;17.90;96.40;;;;;;4941705;28;20980;-79
2022/08/26 05:21:53;;;;;;;3.05;0.90;;;17.80;96.90;;;;;;4992560;28;20467;-79
2022/08/26 05:24:20;;;;;;;4.30;0.90;;;17.80;97.50;;;;;;4992467;28;20749;-79
2022/08/26 05:26:47;;;;;;;2.92;0.85;;;17.70;97.30;;;;;;4992450;28;20900;-78
2022/08/26 05:29:14;;;;;;;3.78;0.80;;;17.70;97.40;;;;;;4992711;28;20428;-78
2022/08/26 05:31:41;;;;;;;2.63;0.80;;;17.80;97.60;;;;;;4992695;28;20400;-82
2022/08/26 05:34:09;;;;;;;4.40;0.90;;;17.90;97.70;;;;;;4995059;28;20377;-75
2022/08/26 05:36:36;;;;;;;3.28;0.95;;;18.00;97.90;;;;;;4996536;28;20392;-78
2022/08/26 05:39:05;;;;;;;3.97;1.00;;;18.10;97.80;;;;;;4994100;28;20404;-76
2022/08/26 05:41:34;;;;;;;3.53;1.10;;;18.20;97.60;;;;;;4993945;28;20461;-77
2022/08/26 05:44:04;;;;;;;5.15;1.20;;;18.20;96.60;;;;;;4995454;28;20385;-77
2022/08/26 05:46:32;;;;;;;5.50;1.27;;;18.30;97.10;;;;;;4980948;28;20393;-77
2022/08/26 05:49:02;;;;;;;4.88;1.20;;;18.50;95.60;;;;;;4994747;28;20478;-77
2022/08/26 05:51:31;;;;;;;4.80;1.27;;;18.50;95.40;;;;;;4980818;28;20388;-77
2022/08/26 05:54:00;;;;;;;5.85;1.20;;;18.40;95.50;;;;;;4995166;28;20894;-76
2022/08/26 05:56:27;;;;;;;3.47;1.30;;;18.30;95.60;;;;;;4995863;28;20385;-77
2022/08/26 05:58:56;;;;;;;4.70;1.10;;;18.10;95.70;;;;;;4978673;28;20731;-78
2022/08/26 06:01:26;;;;;;;2.92;1.10;;;17.90;95.80;;;;;;4994299;28;20476;-78
2022/08/26 06:03:57;;;;;;;4.80;1.10;;;17.80;96.50;;;;;;4993392;28;20468;-77
2022/08/26 06:06:27;;;;;;;3.97;1.10;;;17.60;97.40;;;;;;4993708;28;20942;-77
2022/08/26 06:08:57;;;;;;;4.78;1.10;;;17.50;98.00;;;;;;4993935;28;20749;-78
2022/08/26 06:11:29;;;;;;;5.30;1.10;;;17.40;98.50;;;;;;4993220;28;20397;-78
2022/08/26 06:13:58;;;;;;;3.63;1.00;;;17.40;98.60;;;;;;4983060;28;20403;-77
2022/08/26 06:16:26;;;;;;;3.72;1.10;;;17.40;99.00;;;;;;4979583;28;20399;-77
2022/08/26 06:18:53;;;;;;;4.40;1.00;;;17.30;99.30;;;;;;4994758;28;20404;-78
2022/08/26 06:21:30;;;;;;;4.50;1.00;;;17.20;99.80;;;;;;4994565;28;20464;-78
2022/08/26 06:26:55;;;;;;;6.45;1.30;;;17.10;99.90;;;;;;4991666;28;20371;-76
2022/08/26 06:29:26;;;;;;;5.32;1.27;;;17.00;99.90;;;;;;4994036;28;20392;-77
2022/08/26 06:31:54;;;;;;;3.97;1.10;;;17.00;99.90;;;;;;4950588;28;20400;-77
2022/08/26 06:34:22;;;;;;;4.10;0.97;;;16.90;99.90;;;;;;4949752;29;20551;-77
2022/08/26 06:36:50;;;;;;;4.43;1.20;;;16.90;99.90;;;;;;4950655;29;20407;-76
2022/08/26 06:39:17;;;;;;;4.90;1.17;;;16.90;99.90;;;;;;4950146;29;20404;-76
2022/08/26 06:41:45;;;;;;;4.68;1.20;;;16.80;99.90;;;;;;4951469;29;20399;-77
2022/08/26 06:44:16;;;;;;;6.33;1.17;;;16.70;99.90;;;;;;4951760;29;20396;-77
2022/08/26 06:46:46;;;;;;;5.20;1.20;;;16.60;99.90;;;;;;4951613;29;20471;-78
2022/08/26 06:49:14;;;;;;;6.13;1.20;;;16.60;99.90;;;;;;4951115;29;20848;-76
2022/08/26 06:51:41;;;;;;;3.77;1.03;;;16.50;99.90;;;;;;4951831;29;20412;-77
2022/08/26 06:54:09;;;;;;;5.20;1.30;;;16.40;99.90;;;;;;4952210;29;20452;-77
2022/08/26 06:56:39;;;;;;;5.57;1.50;;;16.40;99.90;;;;;;4950558;29;20392;-77
2022/08/26 06:59:08;;;;;;;5.00;1.90;;;16.20;99.90;;;;;;4950801;29;20404;-77
2022/08/26 07:01:38;;;;;;;7.72;2.33;;;16.10;99.90;;;;;;4950791;29;20495;-77
2022/08/26 07:04:07;;;;;;;7.00;2.28;;;15.90;99.90;;;;;;4949269;29;20411;-78
2022/08/26 07:06:39;;;;;;;4.70;1.90;;;15.80;99.90;;;;;;4950684;29;20443;-78
2022/08/26 07:09:08;;;;;;;8.98;1.77;;;15.60;99.90;;;;;;4968593;28;20990;-76
2022/08/26 07:11:37;;;;;;;6.90;1.40;;;15.50;99.90;;;;;;4992358;28;20461;-76
2022/08/26 07:14:05;;;;;;;5.80;1.35;;;15.30;99.90;;;;;;4978395;28;20390;-76
2022/08/26 07:16:32;;;;;;;7.18;1.58;;;15.30;99.90;;;;;;4989412;28;20393;-76
2022/08/26 07:19:00;;;;;;;7.55;1.52;;;15.20;99.90;;;;;;4989800;28;20439;-76
2022/08/26 07:21:27;;;;;;;8.57;1.58;;;15.10;99.90;;;;;;4991343;28;20409;-75
2022/08/26 07:23:55;;;;;;;6.43;1.60;;;15.00;99.90;;;;;;4992209;28;20392;-76
2022/08/26 07:26:25;;;;;;;4.65;1.40;;;15.00;99.90;;;;;;4991327;28;20384;-76
2022/08/26 07:28:54;;;;;;;5.45;1.50;;;14.90;99.90;;;;;;4992201;28;20740;-76
2022/08/26 07:31:25;;;;;;;9.05;1.70;;;14.80;99.90;;;;;;4991132;28;20459;-76
2022/08/26 07:33:52;;;;;;;8.50;1.55;;;14.70;99.90;;;;;;4991600;28;20385;-76
2022/08/26 07:36:21;;;;;;;7.23;1.93;;;14.60;99.90;;;;;;4974101;28;20745;-76
2022/08/26 07:38:48;;;;;;;9.18;2.53;;;14.60;99.90;;;;;;4990806;28;20416;-76
2022/08/26 07:41:17;;;;;;;7.60;2.30;;;14.50;99.90;;;;;;4990458;28;21211;-76
2022/08/26 07:43:44;;;;;;;7.80;1.77;;;14.40;99.90;;;;;;4993625;28;20423;-76
2022/08/26 07:46:17;;;;;;;6.85;2.00;;;14.40;99.90;;;;;;4994484;28;20416;-76
2022/08/26 07:48:46;;;;;;;10.57;1.90;;;14.30;99.90;;;;;;4994590;28;20373;-76
2022/08/26 07:51:15;;;;;;;8.02;1.70;;;14.20;99.90;;;;;;4994410;28;20384;-75
2022/08/26 07:53:43;;;;;;;6.70;1.40;;;14.30;99.90;;;;;;4994106;28;20727;-76
2022/08/26 07:56:10;;;;;;;7.55;1.50;;;14.20;99.90;;;;;;4994549;28;20825;-76
2022/08/26 07:58:39;;;;;;;8.40;1.55;;;14.20;99.90;;;;;;4993938;28;20444;-75
2022/08/26 08:01:06;;;;;;;10.48;1.60;;;14.20;99.90;;;;;;4993942;28;20396;-77
2022/08/26 08:03:33;;;;;;;9.30;1.90;;;14.10;99.90;;;;;;4994115;28;20401;-76
2022/08/26 08:06:00;;;;;;;9.07;1.52;;;14.10;99.90;;;;;;4993999;28;20416;-75
2022/08/26 08:08:27;;;;;;;8.85;1.70;;;14.10;99.90;;;;;;4993961;28;20385;-75
2022/08/26 08:10:56;;;;;;;8.10;1.60;;;14.00;99.90;;;;;;4993708;28;20908;-76
2022/08/26 08:13:23;;;;;;;8.80;1.60;;;14.00;99.90;;;;;;4985382;28;20861;-76
2022/08/26 08:15:51;;;;;;;7.18;1.60;;;14.00;99.90;;;;;;4989947;28;20392;-77
2022/08/26 08:18:18;;;;;;;5.97;1.60;;;14.00;99.90;;;;;;4993767;28;20404;-76
2022/08/26 08:20:46;;;;;;;7.97;3.40;;;13.90;99.90;;;;;;4976271;28;20705;-76
2022/08/26 08:23:14;;;;;;;13.23;7.00;;;13.90;99.90;;;;;;4993599;28;21045;-75
2022/08/26 08:25:42;;;;;;;20.13;11.52;;;13.90;99.90;;;;;;4993850;28;20381;-75
2022/08/26 08:28:09;;;;;;;25.80;16.42;;;13.80;99.90;;;;;;4993695;28;20396;-75
2022/08/26 08:30:39;;;;;;;38.35;23.13;;;13.80;99.90;;;;;;4993724;28;20384;-75
2022/08/26 08:33:06;;;;;;;33.67;21.63;;;13.80;99.90;;;;;;4993687;28;20385;-75
2022/08/26 08:35:33;;;;;;;28.42;16.05;;;13.70;99.90;;;;;;4993400;28;20861;-76
2022/08/26 08:38:02;;;;;;;23.58;14.20;;;13.70;99.90;;;;;;4993505;28;20413;-76
2022/08/26 08:40:30;;;;;;;20.55;11.30;;;13.70;99.90;;;;;;4993471;28;20416;-76
2022/08/26 08:43:06;;;;;;;18.92;8.95;;;13.60;99.90;;;;;;4975842;28;20898;-76
2022/08/26 08:45:56;;;;;;;15.02;6.82;;;13.60;99.90;;;;;;4993577;28;20389;-77
2022/08/26 08:48:28;;;;;;;17.57;7.23;;;13.50;99.90;;;;;;4993935;28;20384;-75
2022/08/26 08:51:05;;;;;;;14.27;7.85;;;13.50;99.90;;;;;;4993225;28;20369;-75
2022/08/26 08:53:38;;;;;;;20.85;11.30;;;13.40;99.90;;;;;;4992864;28;20385;-76
2022/08/26 08:56:23;;;;;;;23.83;14.23;;;13.40;99.90;;;;;;4992783;28;20412;-75
2022/08/26 08:59:12;;;;;;;26.02;15.05;;;13.30;99.90;;;;;;4992886;28;20897;-75
2022/08/26 09:01:51;;;;;;;24.63;14.03;;;13.30;99.90;;;;;;4992805;28;20388;-76
2022/08/26 09:04:33;;;;;;;23.95;13.85;;;13.30;99.90;;;;;;4993273;28;20713;-74
2022/08/26 09:07:03;;;;;;;21.80;12.23;;;13.20;99.90;;;;;;4993928;28;20408;-75
2022/08/26 09:09:37;;;;;;;19.35;10.05;;;13.20;99.90;;;;;;4995020;28;20769;-75
2022/08/26 09:12:22;;;;;;;18.88;8.80;;;13.10;99.90;;;;;;4998915;28;20381;-75
2022/08/26 09:14:50;;;;;;;16.58;7.78;;;13.00;99.90;;;;;;4982314;28;20377;-76
2022/08/26 09:17:49;;;;;;;18.73;7.95;;;12.90;99.90;;;;;;4994017;28;20753;-76
2022/08/26 09:20:47;;;;;;;13.57;5.43;;;12.80;99.90;;;;;;4977205;28;20389;-75
2022/08/26 09:23:15;;;;;;;14.13;4.95;;;12.70;99.90;;;;;;4991790;28;20384;-75
2022/08/26 09:25:51;;;;;;;10.00;3.20;;;12.70;99.90;;;;;;4994199;28;20389;-75
2022/08/26 09:28:21;;;;;;;11.77;3.00;;;12.60;99.90;;;;;;4993640;28;20459;-75
2022/08/26 09:31:00;;;;;;;12.25;2.80;;;12.60;99.90;;;;;;4992975;28;20389;-75
2022/08/26 09:33:31;;;;;;;8.98;2.40;;;12.60;99.90;;;;;;4986606;28;20384;-74
2022/08/26 09:36:21;;;;;;;10.70;2.70;;;12.60;99.90;;;;;;4991246;28;20507;-75
2022/08/26 09:38:53;;;;;;;9.25;2.60;;;12.50;99.90;;;;;;4984595;28;20811;-75
2022/08/26 09:41:23;;;;;;;11.68;2.70;;;12.50;99.90;;;;;;4991960;28;20397;-75
2022/08/26 09:44:08;;;;;;;12.07;2.63;;;12.50;99.90;;;;;;4992936;28;20393;-74
2022/08/26 09:46:37;;;;;;;10.50;2.67;;;12.40;99.90;;;;;;4991870;28;20396;-74
2022/08/26 09:49:26;;;;;;;11.73;2.38;;;12.40;99.90;;;;;;4992333;28;20412;-75
2022/08/26 09:52:23;;;;;;;7.93;2.20;;;12.40;99.90;;;;;;4950850;29;20403;-74
2022/08/26 09:55:13;;;;;;;11.00;2.28;;;12.40;99.90;;;;;;4951576;29;20923;-75
2022/08/26 09:57:51;;;;;;;9.60;2.00;;;12.40;99.90;;;;;;4951326;29;20432;-74
2022/08/26 10:00:28;;;;;;;11.70;1.95;;;12.50;99.90;;;;;;4951128;29;20384;-74
2022/08/26 10:02:59;;;;;;;9.95;2.20;;;12.50;99.90;;;;;;4951179;29;20828;-74
2022/08/26 10:05:45;;;;;;;7.90;2.28;;;12.50;99.90;;;;;;4949990;28;20817;-75
2022/08/26 10:08:38;;;;;;;7.90;2.50;;;12.60;99.90;;;;;;4944369;29;20482;-74
2022/08/26 10:11:19;;;;;;;10.05;2.20;;;12.60;99.90;;;;;;4950773;29;20396;-74
2022/08/26 10:13:57;;;;;;;11.40;2.30;;;12.60;99.90;;;;;;4951134;29;20625;-74
2022/08/26 10:16:43;;;;;;;7.13;1.95;;;12.50;99.90;;;;;;4950083;29;20409;-75
2022/08/26 10:19:19;;;;;;;9.48;2.20;;;12.40;99.90;;;;;;4945721;29;20412;-74
2022/08/26 10:22:18;;;;;;;8.20;2.08;;;12.40;99.90;;;;;;4950946;29;20491;-74
2022/08/26 10:24:53;;;;;;;8.38;2.22;;;12.40;99.90;;;;;;4949404;29;20803;-74
2022/08/26 10:27:42;;;;;;;9.57;2.80;;;12.40;99.90;;;;;;4951126;29;20376;-75
2022/08/26 10:30:22;;;;;;;9.95;4.78;;;12.30;99.90;;;;;;4979650;28;21030;-73
2022/08/26 10:33:06;;;;;;;8.38;3.53;;;12.40;99.90;;;;;;4992198;28;20848;-74
2022/08/26 10:35:39;;;;;;;8.43;3.75;;;12.50;99.90;;;;;;4991715;28;20431;-75
2022/08/26 10:38:14;;;;;;;10.13;3.65;;;12.60;99.90;;;;;;4991511;28;20416;-76
2022/08/26 10:40:50;;;;;;;13.68;4.10;;;12.70;99.90;;;;;;4991363;28;20388;-77
2022/08/26 10:43:22;;;;;;;11.20;4.20;;;12.80;99.90;;;;;;4992207;28;20753;-74
2022/08/26 10:45:53;;;;;;;11.88;4.25;;;12.80;99.90;;;;;;4992443;28;20372;-75
2022/08/26 10:48:45;;;;;;;11.68;4.30;;;12.80;99.90;;;;;;4991690;28;20385;-74
2022/08/26 10:51:14;;;;;;;12.25;3.50;;;12.80;99.90;;;;;;4991619;28;21003;-74
2022/08/26 10:54:15;;;;;;;12.20;3.22;;;12.80;99.90;;;;;;4950119;29;20424;-73
2022/08/26 10:57:01;;;;;;;9.27;3.03;;;12.70;99.90;;;;;;4947766;29;20381;-74
2022/08/26 10:59:35;;;;;;;12.30;3.10;;;12.70;99.90;;;;;;4950370;29;20406;-74
2022/08/26 11:02:25;;;;;;;11.07;3.45;;;12.80;99.90;;;;;;4950177;29;20539;-74
2022/08/26 11:05:00;;;;;;;10.95;4.00;;;12.70;99.90;;;;;;4950296;29;20514;-74
2022/08/26 11:07:40;;;;;;;10.75;3.78;;;12.70;99.90;;;;;;4936943;29;20794;-75
2022/08/26 11:10:29;;;;;;;11.02;3.70;;;12.60;99.90;;;;;;4950517;29;20428;-74
2022/08/26 11:13:09;;;;;;;9.07;3.92;;;12.70;99.90;;;;;;4865115;29;20413;-74
2022/08/26 11:15:38;;;;;;;13.60;4.40;;;12.70;99.90;;;;;;4868784;29;20411;-74
2022/08/26 11:18:10;;;;;;;12.30;4.13;;;12.70;99.90;;;;;;4858716;29;20428;-74
2022/08/26 11:20:46;;;;;;;9.80;4.00;;;12.60;99.90;;;;;;4860107;29;20400;-74
2022/08/26 11:23:15;;;;;;;12.77;3.95;;;12.60;99.90;;;;;;4865467;29;20482;-74
2022/08/26 11:26:14;;;;;;;12.32;4.30;;;12.60;99.90;;;;;;4866952;29;20822;-74
2022/08/26 11:28:44;;;;;;;11.67;3.93;;;12.60;99.90;;;;;;4856928;29;20405;-74
2022/08/26 11:31:19;;;;;;;10.38;4.40;;;12.60;99.90;;;;;;4877891;29;20404;-74
2022/08/26 11:33:50;;;;;;;11.85;4.43;;;12.50;99.90;;;;;;4896609;29;20405;-74
2022/08/26 11:36:44;;;;;;;13.18;4.68;;;12.50;99.90;;;;;;4896673;29;20385;-74
2022/08/26 11:39:46;;;;;;;12.57;4.32;;;12.40;99.90;;;;;;4896371;29;20420;-74
2022/08/26 11:42:31;;;;;;;9.02;4.53;;;12.30;99.90;;;;;;4893608;29;21172;-74
2022/08/26 11:45:00;;;;;;;9.10;4.40;;;12.30;99.90;;;;;;4896163;29;20392;-74
2022/08/26 11:47:29;;;;;;;10.02;4.10;;;12.20;99.90;;;;;;4896659;29;20393;-74
2022/08/26 11:50:13;;;;;;;8.18;4.10;;;12.20;99.90;;;;;;4922480;28;20401;-73
2022/08/26 11:52:40;;;;;;;9.48;4.00;;;12.20;99.90;;;;;;4976124;28;20787;-74
2022/08/26 11:55:11;;;;;;;9.00;3.83;;;12.30;99.90;;;;;;4994115;28;20393;-74
2022/08/26 11:57:48;;;;;;;7.75;3.20;;;12.20;99.90;;;;;;4985602;28;20390;-74
2022/08/26 12:00:54;;;;;;;6.32;3.10;;;12.30;99.90;;;;;;4991039;28;20838;-74
2022/08/26 12:03:25;;;;;;;8.85;2.72;;;12.20;99.90;;;;;;4992099;28;20399;-74
2022/08/26 12:05:58;;;;;;;7.45;2.50;;;12.20;99.90;;;;;;4991963;28;20427;-74
2022/08/26 12:08:29;;;;;;;6.70;2.70;;;12.20;99.90;;;;;;4991995;28;20399;-74
2022/08/26 12:11:09;;;;;;;6.25;2.50;;;12.20;99.90;;;;;;4994035;28;20528;-74
2022/08/26 12:13:37;;;;;;;5.90;1.80;;;12.20;99.90;;;;;;4994727;28;20448;-74
2022/08/26 12:16:06;;;;;;;3.97;1.90;;;12.20;99.90;;;;;;4981590;28;20396;-74
2022/08/26 12:18:36;;;;;;;4.53;2.00;;;12.20;99.90;;;;;;4996129;28;20407;-74
2022/08/26 12:21:21;;;;;;;4.95;2.00;;;12.10;99.90;;;;;;4995138;28;20421;-73
2022/08/26 12:23:51;;;;;;;4.85;1.80;;;12.10;99.90;;;;;;4994956;28;20749;-74
2022/08/26 12:26:35;;;;;;;3.17;1.63;;;12.10;99.90;;;;;;5004607;28;20381;-74
2022/08/26 12:29:09;;;;;;;3.13;1.70;;;12.10;99.90;;;;;;4992758;28;20381;-73
2022/08/26 12:31:41;;;;;;;2.95;1.63;;;12.00;99.90;;;;;;5010308;28;20424;-74
2022/08/26 12:34:11;;;;;;;3.95;1.60;;;12.00;99.90;;;;;;5015131;28;20435;-73
2022/08/26 12:36:41;;;;;;;4.30;1.67;;;12.10;99.90;;;;;;5012723;28;20412;-74
2022/08/26 12:39:12;;;;;;;3.10;1.40;;;12.10;99.90;;;;;;4993683;28;20407;-73
2022/08/26 12:41:42;;;;;;;4.30;1.60;;;12.00;99.90;;;;;;5013882;28;20372;-74
2022/08/26 12:44:29;;;;;;;3.45;1.55;;;12.00;99.90;;;;;;5006280;28;20396;-73
2022/08/26 12:47:03;;;;;;;2.95;1.50;;;11.90;99.90;;;;;;4999615;28;20480;-73
2022/08/26 12:49:30;;;;;;;4.13;1.70;;;11.90;99.90;;;;;;4995549;28;20385;-73
2022/08/26 12:51:58;;;;;;;4.07;1.80;;;11.90;99.90;;;;;;4976955;28;20480;-74
2022/08/26 12:54:57;;;;;;;4.47;1.60;;;11.90;99.90;;;;;;4996726;28;20393;-73
2022/08/26 12:57:13;;;;;;;3.60;1.70;;;11.90;99.90;;;;;;4994311;28;20421;-73
2022/08/26 12:59:44;;;;;;;2.72;1.50;;;12.00;99.90;;;;;;4993445;28;20391;-73
2022/08/26 13:02:31;;;;;;;3.60;1.80;;;12.00;99.90;;;;;;4975852;28;20722;-73
2022/08/26 13:04:59;;;;;;;4.00;1.70;;;12.00;99.90;;;;;;4993469;28;20399;-74
2022/08/26 13:07:26;;;;;;;3.00;1.90;;;12.00;99.90;;;;;;4993348;28;20388;-74
2022/08/26 13:09:56;;;;;;;3.63;1.83;;;12.00;99.90;;;;;;4993287;28;20938;-74